createdAt,value
2022-08-12T00:00:46.158Z,18.36
2022-08-12T00:02:02.784Z,18.34
2022-08-12T00:02:47.978Z,18.33
2022-08-12T00:03:38.818Z,18.37
2022-08-12T00:04:32.788Z,18.42
2022-08-12T00:05:23.611Z,18.17
2022-08-12T00:06:15.351Z,18.10
2022-08-12T00:07:06.609Z,18.05
2022-08-12T00:07:58.164Z,18.11
2022-08-12T00:08:51.551Z,18.09
2022-08-12T00:09:42.958Z,17.99
2022-08-12T00:10:33.697Z,17.88
2022-08-12T00:11:24.499Z,17.87
2022-08-12T00:12:15.401Z,17.89
2022-08-12T00:13:06.199Z,17.88
2022-08-12T00:13:57.487Z,17.98
2022-08-12T00:14:48.409Z,17.88
2022-08-12T00:15:39.226Z,17.87
2022-08-12T00:16:30.308Z,17.87
2022-08-12T00:17:23.265Z,17.93
2022-08-12T00:18:14.674Z,17.93
2022-08-12T00:19:05.261Z,17.85
2022-08-12T00:19:55.909Z,17.73
2022-08-12T00:20:46.779Z,17.61
2022-08-12T00:21:37.825Z,17.64
2022-08-12T00:22:29.465Z,17.58
2022-08-12T00:23:20.896Z,17.66
2022-08-12T00:24:11.883Z,17.71
2022-08-12T00:25:04.872Z,17.72
2022-08-12T00:26:22.320Z,17.80
2022-08-12T00:27:12.830Z,17.80
2022-08-12T00:28:05.897Z,17.66
2022-08-12T00:28:56.975Z,17.67
2022-08-12T00:29:48.258Z,17.73
2022-08-12T00:30:39.286Z,17.73
2022-08-12T00:31:30.751Z,17.64
2022-08-12T00:32:35.747Z,17.71
2022-08-12T00:33:27.564Z,17.68
2022-08-12T00:34:32.357Z,17.74
2022-08-12T00:35:36.492Z,17.68
2022-08-12T00:36:34.957Z,17.69
2022-08-12T00:37:28.443Z,17.79
2022-08-12T00:38:21.344Z,17.75
2022-08-12T00:39:12.526Z,17.72
2022-08-12T00:40:04.873Z,17.75
2022-08-12T00:41:02.898Z,17.76
2022-08-12T00:41:55.757Z,17.79
2022-08-12T00:42:29.017Z,17.74
2022-08-12T00:43:03.060Z,17.74
2022-08-12T00:43:36.317Z,17.78
2022-08-12T00:44:10.635Z,17.78
2022-08-12T00:44:45.582Z,17.79
2022-08-12T00:45:21.129Z,17.81
2022-08-12T00:46:13.509Z,17.84
2022-08-12T00:46:51.583Z,17.91
2022-08-12T00:47:26.026Z,17.89
2022-08-12T00:47:58.674Z,17.86
2022-08-12T00:48:32.336Z,17.86
2022-08-12T00:49:07.059Z,17.83
2022-08-12T00:49:41.067Z,17.86
2022-08-12T00:50:19.134Z,17.87
2022-08-12T00:50:54.878Z,17.79
2022-08-12T00:51:53.015Z,17.78
2022-08-12T00:52:25.568Z,17.81
2022-08-12T00:52:59.200Z,17.80
2022-08-12T00:53:31.956Z,17.69
2022-08-12T00:54:04.456Z,17.62
2022-08-12T00:54:48.701Z,17.60
2022-08-12T00:55:21.521Z,17.65
2022-08-12T00:55:57.263Z,17.67
2022-08-12T00:56:31.601Z,17.70
2022-08-12T00:57:08.414Z,17.74
2022-08-12T00:57:47.971Z,17.81
2022-08-12T00:58:25.589Z,17.74
2022-08-12T00:59:01.573Z,17.70
2022-08-12T00:59:35.339Z,17.64
2022-08-12T01:00:18.641Z,17.58
2022-08-12T01:00:52.028Z,17.62
2022-08-12T01:01:25.250Z,17.68
2022-08-12T01:02:12.023Z,17.69
2022-08-12T01:02:52.282Z,17.63
2022-08-12T01:03:26.938Z,17.66
2022-08-12T01:04:19.691Z,17.65
2022-08-12T01:05:15.214Z,17.60
2022-08-12T01:06:10.130Z,17.67
2022-08-12T01:07:01.522Z,17.69
2022-08-12T01:07:56.230Z,17.59
2022-08-12T01:08:46.985Z,17.68
2022-08-12T01:09:38.966Z,17.66
2022-08-12T01:10:32.528Z,17.71
2022-08-12T01:11:24.724Z,17.69
2022-08-12T01:11:57.349Z,17.62
2022-08-12T01:12:30.171Z,17.68
2022-08-12T01:13:07.677Z,17.65
2022-08-12T01:13:52.939Z,17.62
2022-08-12T01:14:25.690Z,17.69
2022-08-12T01:14:58.139Z,17.61
2022-08-12T01:15:31.285Z,17.66
2022-08-12T01:16:06.326Z,17.70
2022-08-12T01:16:38.600Z,17.62
2022-08-12T01:17:11.065Z,17.63
2022-08-12T01:17:44.959Z,17.63
2022-08-12T01:18:20.080Z,17.59
2022-08-12T01:18:56.196Z,17.54
2022-08-12T01:19:28.528Z,17.53
2022-08-12T01:20:04.887Z,17.52
2022-08-12T01:20:53.709Z,17.49
2022-08-12T01:21:35.342Z,17.51
2022-08-12T01:22:18.996Z,17.50
2022-08-12T01:23:09.695Z,17.57
2022-08-12T01:23:57.180Z,17.64
2022-08-12T01:24:30.867Z,17.72
2022-08-12T01:25:24.834Z,17.63
2022-08-12T01:25:59.647Z,17.68
2022-08-12T01:26:33.748Z,17.69
2022-08-12T01:27:08.190Z,17.58
2022-08-12T01:27:41.249Z,17.51
2022-08-12T01:28:16.828Z,17.60
2022-08-12T01:28:57.076Z,17.67
2022-08-12T01:29:35.117Z,17.69
2022-08-12T01:30:10.500Z,17.61
2022-08-12T01:30:44.027Z,17.70
2022-08-12T01:31:18.607Z,17.67
2022-08-12T01:31:54.949Z,17.70
2022-08-12T01:32:29.129Z,17.73
2022-08-12T01:33:06.174Z,17.61
2022-08-12T01:33:46.635Z,17.68
2022-08-12T01:34:22.988Z,17.65
2022-08-12T01:35:09.424Z,17.66
2022-08-12T01:36:07.690Z,17.69
2022-08-12T01:36:44.523Z,17.62
2022-08-12T01:37:19.964Z,17.58
2022-08-12T01:38:01.200Z,17.58
2022-08-12T01:38:35.894Z,17.59
2022-08-12T01:39:09.683Z,17.60
2022-08-12T01:40:35.558Z,17.71
2022-08-12T01:40:48.297Z,17.74
2022-08-12T01:41:21.800Z,17.53
2022-08-12T01:41:59.296Z,17.55
2022-08-12T01:42:45.660Z,17.52
2022-08-12T01:43:21.726Z,17.59
2022-08-12T01:43:55.313Z,17.59
2022-08-12T01:44:29.361Z,17.60
2022-08-12T01:45:03.250Z,17.53
2022-08-12T01:45:44.919Z,17.55
2022-08-12T01:46:40.757Z,17.61
2022-08-12T01:47:31.156Z,17.69
2022-08-12T01:48:50.279Z,17.48
2022-08-12T01:49:34.626Z,17.62
2022-08-12T01:50:26.642Z,17.45
2022-08-12T01:52:15.938Z,17.55
2022-08-12T01:52:27.757Z,17.55
2022-08-12T01:53:12.372Z,17.52
2022-08-12T01:53:57.597Z,17.51
2022-08-12T01:54:32.588Z,17.49
2022-08-12T01:55:07.482Z,17.52
2022-08-12T01:55:42.644Z,17.57
2022-08-12T01:56:16.368Z,17.61
2022-08-12T01:56:53.024Z,17.64
2022-08-12T01:57:59.467Z,17.63
2022-08-12T01:58:57.791Z,17.62
2022-08-12T01:59:56.827Z,17.54
2022-08-12T02:00:55.377Z,17.51
2022-08-12T02:01:35.080Z,17.56
2022-08-12T02:02:11.465Z,17.46
2022-08-12T02:02:57.853Z,17.46
2022-08-12T02:04:16.660Z,17.41
2022-08-12T02:05:37.324Z,17.26
2022-08-12T02:06:36.468Z,17.37
2022-08-12T02:07:56.323Z,17.22
2022-08-12T02:09:08.780Z,17.36
2022-08-12T02:10:51.398Z,17.37
2022-08-12T02:11:30.412Z,17.34
2022-08-12T02:12:13.406Z,17.35
2022-08-12T02:12:55.954Z,17.21
2022-08-12T02:13:48.930Z,17.30
2022-08-12T02:14:40.567Z,17.16
2022-08-12T02:15:45.756Z,17.28
2022-08-12T02:16:42.068Z,17.23
2022-08-12T02:17:55.223Z,17.22
2022-08-12T02:18:34.259Z,17.26
2022-08-12T02:19:28.643Z,17.28
2022-08-12T02:20:05.977Z,17.15
2022-08-12T02:20:53.305Z,17.21
2022-08-12T02:21:38.818Z,17.15
2022-08-12T02:22:11.121Z,17.11
2022-08-12T02:22:45.527Z,17.10
2022-08-12T02:23:19.490Z,17.14
2022-08-12T02:23:52.093Z,17.07
2022-08-12T02:24:31.433Z,17.06
2022-08-12T02:25:09.844Z,17.24
2022-08-12T02:25:46.178Z,17.26
2022-08-12T02:26:19.973Z,17.20
2022-08-12T02:26:55.849Z,17.14
2022-08-12T02:27:34.692Z,17.17
2022-08-12T02:28:08.217Z,17.17
2022-08-12T02:28:40.653Z,17.11
2022-08-12T02:29:13.329Z,17.19
2022-08-12T02:29:45.623Z,17.22
2022-08-12T02:30:20.567Z,17.21
2022-08-12T02:30:54.008Z,17.07
2022-08-12T02:31:29.754Z,17.12
2022-08-12T02:32:04.380Z,17.15
2022-08-12T02:32:42.632Z,17.12
2022-08-12T02:33:17.169Z,17.18
2022-08-12T02:33:49.813Z,17.17
2022-08-12T02:34:23.323Z,17.09
2022-08-12T02:34:57.194Z,17.11
2022-08-12T02:35:32.382Z,17.10
2022-08-12T02:36:05.887Z,17.19
2022-08-12T02:36:40.056Z,17.17
2022-08-12T02:37:15.673Z,17.11
2022-08-12T02:37:50.248Z,17.09
2022-08-12T02:38:26.341Z,17.10
2022-08-12T02:39:00.084Z,17.16
2022-08-12T02:39:36.184Z,17.19
2022-08-12T02:40:12.050Z,17.07
2022-08-12T02:40:50.166Z,16.99
2022-08-12T02:41:26.682Z,17.01
2022-08-12T02:42:02.251Z,17.05
2022-08-12T02:42:35.488Z,17.10
2022-08-12T02:43:35.837Z,17.13
2022-08-12T02:44:10.070Z,17.08
2022-08-12T02:44:45.757Z,17.10
2022-08-12T02:45:26.058Z,17.10
2022-08-12T02:46:14.181Z,17.04
2022-08-12T02:46:50.404Z,17.00
2022-08-12T02:47:59.891Z,16.99
2022-08-12T02:48:26.370Z,16.98
2022-08-12T02:49:04.680Z,17.04
2022-08-12T02:49:44.508Z,17.00
2022-08-12T02:50:21.295Z,16.92
2022-08-12T02:50:57.322Z,16.98
2022-08-12T02:51:32.682Z,16.91
2022-08-12T02:52:06.052Z,16.89
2022-08-12T02:52:39.124Z,16.96
2022-08-12T02:53:13.266Z,16.95
2022-08-12T02:53:46.416Z,16.94
2022-08-12T02:54:38.811Z,16.98
2022-08-12T02:55:28.741Z,17.04
2022-08-12T02:56:07.858Z,16.87
2022-08-12T02:56:41.964Z,16.80
2022-08-12T02:57:23.048Z,16.80
2022-08-12T02:57:57.309Z,16.80
2022-08-12T02:58:33.408Z,16.70
2022-08-12T02:59:12.271Z,16.74
2022-08-12T02:59:44.755Z,16.73
2022-08-12T03:00:18.998Z,16.60
2022-08-12T03:00:52.027Z,16.55
2022-08-12T03:01:34.376Z,16.68
2022-08-12T03:02:13.110Z,16.69
2022-08-12T03:02:47.204Z,16.64
2022-08-12T03:03:21.659Z,16.63
2022-08-12T03:03:58.630Z,16.59
2022-08-12T03:04:54.295Z,16.64
2022-08-12T03:05:26.891Z,16.56
2022-08-12T03:06:16.753Z,16.64
2022-08-12T03:07:01.338Z,16.67
2022-08-12T03:07:59.143Z,16.56
2022-08-12T03:08:40.438Z,16.62
2022-08-12T03:09:14.620Z,16.65
2022-08-12T03:10:05.161Z,16.68
2022-08-12T03:10:42.445Z,16.61
2022-08-12T03:11:42.132Z,16.54
2022-08-12T03:12:20.151Z,16.56
2022-08-12T03:12:57.771Z,16.57
2022-08-12T03:13:33.843Z,16.58
2022-08-12T03:14:14.112Z,16.61
2022-08-12T03:14:47.243Z,16.55
2022-08-12T03:15:22.892Z,16.52
2022-08-12T03:15:56.365Z,16.54
2022-08-12T03:16:33.239Z,16.48
2022-08-12T03:18:25.925Z,16.57
2022-08-12T03:18:49.976Z,16.57
2022-08-12T03:19:22.545Z,16.60
2022-08-12T03:20:09.853Z,16.45
2022-08-12T03:20:43.383Z,16.54
2022-08-12T03:21:57.892Z,16.60
2022-08-12T03:22:14.829Z,16.60
2022-08-12T03:22:47.755Z,16.59
2022-08-12T03:23:29.012Z,16.57
2022-08-12T03:24:05.017Z,16.54
2022-08-12T03:24:39.005Z,16.51
2022-08-12T03:25:34.499Z,16.47
2022-08-12T03:26:08.064Z,16.47
2022-08-12T03:26:44.848Z,16.54
2022-08-12T03:27:17.876Z,16.46
2022-08-12T03:27:51.852Z,16.42
2022-08-12T03:28:43.582Z,16.49
2022-08-12T03:29:16.855Z,16.45
2022-08-12T03:29:51.529Z,16.45
2022-08-12T03:30:26.518Z,16.45
2022-08-12T03:31:03.241Z,16.45
2022-08-12T03:31:35.571Z,16.43
2022-08-12T03:32:08.591Z,16.39
2022-08-12T03:33:02.827Z,16.34
2022-08-12T03:33:37.647Z,16.40
2022-08-12T03:34:14.400Z,16.36
2022-08-12T03:34:50.815Z,16.32
2022-08-12T03:35:41.477Z,16.37
2022-08-12T03:36:18.252Z,16.22
2022-08-12T03:36:53.212Z,16.32
2022-08-12T03:37:30.760Z,16.26
2022-08-12T03:38:08.785Z,16.27
2022-08-12T03:38:51.075Z,16.21
2022-08-12T03:39:40.803Z,16.26
2022-08-12T03:40:35.765Z,16.22
2022-08-12T03:41:36.423Z,16.22
2022-08-12T03:42:11.316Z,16.26
2022-08-12T03:43:06.926Z,16.34
2022-08-12T03:44:35.462Z,16.18
2022-08-12T03:45:51.900Z,16.27
2022-08-12T03:46:51.901Z,16.13
2022-08-12T03:47:58.335Z,16.21
2022-08-12T03:48:49.357Z,16.19
2022-08-12T03:49:40.180Z,16.09
2022-08-12T03:50:31.171Z,16.12
2022-08-12T03:51:22.366Z,15.99
2022-08-12T03:52:13.396Z,16.06
2022-08-12T03:53:04.234Z,16.08
2022-08-12T03:53:56.218Z,15.95
2022-08-12T03:54:47.006Z,15.97
2022-08-12T03:55:37.981Z,15.85
2022-08-12T03:56:28.775Z,15.93
2022-08-12T03:57:19.851Z,16.04
2022-08-12T03:58:10.202Z,16.03
2022-08-12T03:59:01.108Z,16.02
2022-08-12T03:59:52.014Z,15.90
2022-08-12T04:00:25.472Z,15.86
2022-08-12T04:00:58.861Z,15.90
2022-08-12T04:01:31.679Z,15.87
2022-08-12T04:02:17.219Z,15.88
2022-08-12T04:02:55.679Z,15.82
2022-08-12T04:03:47.245Z,15.90
2022-08-12T04:04:23.629Z,15.92
2022-08-12T04:04:57.029Z,15.93
2022-08-12T04:05:54.618Z,16.03
2022-08-12T04:06:34.906Z,16.04
2022-08-12T04:07:09.728Z,16.00
2022-08-12T04:07:57.919Z,16.01
2022-08-12T04:08:31.641Z,16.07
2022-08-12T04:09:16.279Z,16.13
2022-08-12T04:09:49.254Z,16.17
2022-08-12T04:10:21.582Z,16.22
2022-08-12T04:11:13.335Z,16.23
2022-08-12T04:12:04.671Z,16.19
2022-08-12T04:12:55.509Z,16.18
2022-08-12T04:13:30.349Z,16.04
2022-08-12T04:14:11.756Z,15.94
2022-08-12T04:14:44.172Z,15.93
2022-08-12T04:15:19.739Z,16.00
2022-08-12T04:15:52.802Z,16.04
2022-08-12T04:16:25.426Z,16.15
2022-08-12T04:17:02.747Z,16.16
2022-08-12T04:17:36.317Z,16.13
2022-08-12T04:18:08.683Z,16.10
2022-08-12T04:18:42.531Z,16.14
2022-08-12T04:19:15.998Z,16.08
2022-08-12T04:19:50.164Z,16.06
2022-08-12T04:20:23.370Z,16.13
2022-08-12T04:20:55.785Z,16.12
2022-08-12T04:21:28.547Z,16.17
2022-08-12T04:22:03.514Z,16.19
2022-08-12T04:22:36.671Z,16.18
2022-08-12T04:23:16.747Z,16.04
2022-08-12T04:23:49.527Z,16.04
2022-08-12T04:24:25.459Z,16.12
2022-08-12T04:25:01.498Z,16.12
2022-08-12T04:25:36.442Z,16.13
2022-08-12T04:26:09.558Z,16.14
2022-08-12T04:26:41.772Z,16.19
2022-08-12T04:27:14.010Z,16.27
2022-08-12T04:27:46.420Z,16.21
2022-08-12T04:28:27.999Z,16.28
2022-08-12T04:29:00.197Z,16.31
2022-08-12T04:30:21.315Z,16.17
2022-08-12T04:30:32.414Z,16.16
2022-08-12T04:31:05.790Z,16.20
2022-08-12T04:31:43.741Z,16.15
2022-08-12T04:32:16.030Z,16.27
2022-08-12T04:32:50.793Z,16.17
2022-08-12T04:33:23.772Z,16.25
2022-08-12T04:33:57.930Z,16.25
2022-08-12T04:34:30.731Z,16.26
2022-08-12T04:35:03.986Z,16.12
2022-08-12T04:35:37.281Z,16.17
2022-08-12T04:36:09.828Z,16.23
2022-08-12T04:36:43.289Z,16.29
2022-08-12T04:37:16.729Z,16.39
2022-08-12T04:37:58.535Z,16.41
2022-08-12T04:38:34.111Z,16.28
2022-08-12T04:39:08.610Z,16.41
2022-08-12T04:39:41.783Z,16.39
2022-08-12T04:40:14.370Z,16.34
2022-08-12T04:40:47.092Z,16.33
2022-08-12T04:41:21.005Z,16.39
2022-08-12T04:41:58.464Z,16.45
2022-08-12T04:42:32.700Z,16.40
2022-08-12T04:43:05.473Z,16.44
2022-08-12T04:44:00.963Z,16.40
2022-08-12T04:44:32.301Z,16.40
2022-08-12T04:45:05.040Z,16.39
2022-08-12T04:45:38.940Z,16.45
2022-08-12T04:46:11.485Z,16.44
2022-08-12T04:46:43.905Z,16.52
2022-08-12T04:47:17.138Z,16.56
2022-08-12T04:47:49.535Z,16.51
2022-08-12T04:48:22.555Z,16.49
2022-08-12T04:48:55.253Z,16.54
2022-08-12T04:49:28.477Z,16.56
2022-08-12T04:50:00.933Z,16.56
2022-08-12T04:50:36.830Z,16.59
2022-08-12T04:51:09.730Z,16.39
2022-08-12T04:51:42.633Z,16.48
2022-08-12T04:52:28.790Z,16.61
2022-08-12T04:53:08.703Z,16.71
2022-08-12T04:53:41.871Z,16.67
2022-08-12T04:54:14.914Z,16.73
2022-08-12T04:54:49.888Z,16.74
2022-08-12T04:55:23.597Z,16.70
2022-08-12T04:55:55.844Z,16.77
2022-08-12T04:56:29.583Z,16.75
2022-08-12T04:57:09.970Z,16.58
2022-08-12T04:57:42.503Z,16.70
2022-08-12T04:58:15.000Z,16.76
2022-08-12T04:58:52.486Z,16.77
2022-08-12T04:59:25.134Z,16.79
2022-08-12T04:59:57.484Z,16.82
2022-08-12T05:00:30.431Z,16.84
2022-08-12T05:01:03.283Z,16.91
2022-08-12T05:01:37.325Z,16.95
2022-08-12T05:02:16.508Z,16.93
2022-08-12T05:02:49.649Z,16.91
2022-08-12T05:03:21.893Z,16.98
2022-08-12T05:03:56.717Z,17.02
2022-08-12T05:04:29.894Z,17.02
2022-08-12T05:05:03.773Z,17.00
2022-08-12T05:05:37.935Z,16.99
2022-08-12T05:06:10.310Z,17.00
2022-08-12T05:06:53.516Z,17.01
2022-08-12T05:07:26.525Z,17.07
2022-08-12T05:07:59.026Z,17.13
2022-08-12T05:08:31.527Z,17.25
2022-08-12T05:09:11.177Z,17.37
2022-08-12T05:10:00.757Z,17.59
2022-08-12T05:10:36.265Z,17.66
2022-08-12T05:11:10.979Z,17.81
2022-08-12T05:11:53.758Z,17.93
2022-08-12T05:12:33.156Z,17.95
2022-08-12T05:13:09.467Z,17.76
2022-08-12T05:13:42.115Z,18.05
2022-08-12T05:14:14.447Z,18.21
2022-08-12T05:14:47.357Z,18.16
2022-08-12T05:15:29.185Z,18.34
2022-08-12T05:16:05.727Z,18.22
2022-08-12T05:16:41.957Z,18.46
2022-08-12T05:17:18.182Z,18.29
2022-08-12T05:17:52.011Z,18.49
2022-08-12T05:18:24.756Z,18.85
2022-08-12T05:18:57.144Z,18.88
2022-08-12T05:19:30.504Z,18.96
2022-08-12T05:20:03.199Z,19.16
2022-08-12T05:20:36.701Z,19.39
2022-08-12T05:21:09.921Z,19.30
2022-08-12T05:21:44.716Z,19.31
2022-08-12T05:22:17.382Z,19.48
2022-08-12T05:22:50.105Z,19.45
2022-08-12T05:23:31.292Z,19.64
2022-08-12T05:24:04.064Z,19.48
2022-08-12T05:24:36.896Z,19.79
2022-08-12T05:25:09.368Z,20.06
2022-08-12T05:25:45.905Z,19.67
2022-08-12T05:26:18.199Z,19.83
2022-08-12T05:26:52.069Z,20.11
2022-08-12T05:27:24.279Z,20.13
2022-08-12T05:27:59.131Z,20.20
2022-08-12T05:28:32.764Z,20.06
2022-08-12T05:29:10.470Z,20.04
2022-08-12T05:30:07.867Z,20.40
2022-08-12T05:30:43.722Z,20.21
2022-08-12T05:31:47.540Z,20.09
2022-08-12T05:32:10.819Z,20.10
2022-08-12T05:32:43.197Z,20.45
2022-08-12T05:33:15.831Z,20.30
2022-08-12T05:33:48.177Z,19.92
2022-08-12T05:34:23.808Z,20.25
2022-08-12T05:34:58.560Z,20.20
2022-08-12T05:35:40.082Z,20.33
2022-08-12T05:36:14.745Z,20.20
2022-08-12T05:36:46.821Z,20.09
2022-08-12T05:37:19.452Z,19.96
2022-08-12T05:38:11.747Z,20.05
2022-08-12T05:38:58.307Z,20.41
2022-08-12T05:39:30.892Z,20.31
2022-08-12T05:40:10.621Z,20.67
2022-08-12T05:40:43.651Z,20.55
2022-08-12T05:41:21.750Z,20.85
2022-08-12T05:41:54.879Z,20.77
2022-08-12T05:42:32.482Z,20.71
2022-08-12T05:43:06.972Z,20.78
2022-08-12T05:43:39.165Z,20.76
2022-08-12T05:44:13.630Z,20.88
2022-08-12T05:44:46.044Z,21.28
2022-08-12T05:45:18.337Z,20.81
2022-08-12T05:45:51.298Z,21.01
2022-08-12T05:46:25.137Z,20.46
2022-08-12T05:46:57.201Z,20.77
2022-08-12T05:47:44.864Z,20.27
2022-08-12T05:48:22.020Z,20.47
2022-08-12T05:48:55.573Z,20.69
2022-08-12T05:49:41.936Z,19.88
2022-08-12T05:50:14.228Z,19.77
2022-08-12T05:50:48.830Z,19.63
2022-08-12T05:51:32.295Z,19.91
2022-08-12T05:52:13.199Z,20.55
2022-08-12T05:52:46.038Z,20.42
2022-08-12T05:53:20.467Z,20.30
2022-08-12T05:53:54.542Z,20.26
2022-08-12T05:54:47.631Z,20.83
2022-08-12T05:55:20.460Z,20.25
2022-08-12T05:55:53.811Z,20.87
2022-08-12T05:56:29.076Z,21.43
2022-08-12T05:57:01.351Z,21.25
2022-08-12T05:57:33.617Z,21.06
2022-08-12T05:58:08.991Z,21.13
2022-08-12T05:58:41.086Z,21.51
2022-08-12T05:59:14.024Z,21.45
2022-08-12T05:59:46.291Z,21.40
2022-08-12T06:00:18.531Z,21.11
2022-08-12T06:00:50.705Z,21.59
2022-08-12T06:02:09.873Z,21.75
2022-08-12T06:02:17.467Z,21.54
2022-08-12T06:02:49.663Z,21.11
2022-08-12T06:03:22.057Z,20.80
2022-08-12T06:03:55.990Z,20.76
2022-08-12T06:04:28.492Z,20.88
2022-08-12T06:05:00.712Z,21.25
2022-08-12T06:05:51.888Z,20.87
2022-08-12T06:06:28.341Z,21.55
2022-08-12T06:07:02.590Z,21.52
2022-08-12T06:08:01.310Z,21.79
2022-08-12T06:08:37.278Z,21.51
2022-08-12T06:09:11.596Z,21.80
2022-08-12T06:09:44.079Z,21.46
2022-08-12T06:10:32.401Z,21.68
2022-08-12T06:11:05.932Z,21.94
2022-08-12T06:12:04.173Z,21.88
2022-08-12T06:12:33.554Z,21.64
2022-08-12T06:13:07.265Z,21.29
2022-08-12T06:13:53.949Z,21.63
2022-08-12T06:14:27.037Z,21.43
2022-08-12T06:15:00.306Z,21.47
2022-08-12T06:15:35.880Z,21.56
2022-08-12T06:16:09.883Z,21.40
2022-08-12T06:16:44.002Z,21.21
2022-08-12T06:17:17.250Z,20.69
2022-08-12T06:17:49.379Z,21.58
2022-08-12T06:18:22.360Z,22.04
2022-08-12T06:18:56.648Z,22.31
2022-08-12T06:20:22.723Z,21.82
2022-08-12T06:20:28.645Z,21.55
2022-08-12T06:21:02.509Z,21.45
2022-08-12T06:21:37.740Z,21.60
2022-08-12T06:22:12.703Z,22.02
2022-08-12T06:22:47.919Z,22.44
2022-08-12T06:23:21.095Z,22.25
2022-08-12T06:23:53.424Z,22.02
2022-08-12T06:24:28.733Z,22.22
2022-08-12T06:25:00.978Z,21.83
2022-08-12T06:25:34.613Z,21.97
2022-08-12T06:26:11.694Z,21.81
2022-08-12T06:26:44.660Z,21.64
2022-08-12T06:27:18.933Z,21.33
2022-08-12T06:28:06.177Z,21.58
2022-08-12T06:28:44.229Z,22.27
2022-08-12T06:30:10.104Z,22.38
2022-08-12T06:30:18.547Z,22.66
2022-08-12T06:31:24.401Z,22.70
2022-08-12T06:31:50.897Z,22.49
2022-08-12T06:32:29.836Z,22.85
2022-08-12T06:33:24.985Z,23.24
2022-08-12T06:35:23.675Z,22.90
2022-08-12T06:35:26.657Z,22.55
2022-08-12T06:35:47.608Z,22.15
2022-08-12T06:36:22.795Z,22.79
2022-08-12T06:36:55.479Z,22.13
2022-08-12T06:37:27.672Z,22.40
2022-08-12T06:37:59.723Z,22.94
2022-08-12T06:38:32.377Z,22.83
2022-08-12T06:39:04.586Z,22.29
2022-08-12T06:39:47.201Z,22.81
2022-08-12T06:40:39.423Z,23.30
2022-08-12T06:41:31.291Z,23.60
2022-08-12T06:42:32.550Z,23.70
2022-08-12T06:43:05.713Z,23.11
2022-08-12T06:44:05.454Z,23.52
2022-08-12T06:44:32.324Z,23.14
2022-08-12T06:45:07.262Z,23.58
2022-08-12T06:45:45.044Z,23.64
2022-08-12T06:46:20.001Z,24.06
2022-08-12T06:46:52.629Z,24.57
2022-08-12T06:47:24.810Z,23.77
2022-08-12T06:47:58.464Z,23.35
2022-08-12T06:48:31.825Z,23.30
2022-08-12T06:49:04.165Z,22.94
2022-08-12T06:49:36.998Z,22.87
2022-08-12T06:50:11.850Z,23.55
2022-08-12T06:50:44.561Z,23.95
2022-08-12T06:51:19.124Z,24.50
2022-08-12T06:51:56.400Z,24.43
2022-08-12T06:52:32.364Z,23.99
2022-08-12T06:53:05.675Z,23.97
2022-08-12T06:53:38.116Z,23.95
2022-08-12T06:54:11.592Z,24.50
2022-08-12T06:54:45.994Z,24.58
2022-08-12T06:55:20.660Z,24.32
2022-08-12T06:55:56.728Z,23.72
2022-08-12T06:57:01.979Z,24.41
2022-08-12T06:58:06.630Z,24.45
2022-08-12T06:58:21.505Z,24.51
2022-08-12T06:58:54.664Z,24.95
2022-08-12T06:59:27.002Z,25.39
2022-08-12T06:59:59.223Z,25.09
2022-08-12T07:00:34.430Z,25.12
2022-08-12T07:01:07.506Z,24.83
2022-08-12T07:01:39.888Z,24.03
2022-08-12T07:02:12.737Z,24.22
2022-08-12T07:02:46.487Z,24.34
2022-08-12T07:03:26.196Z,24.06
2022-08-12T07:04:14.231Z,24.78
2022-08-12T07:04:52.775Z,25.06
2022-08-12T07:05:25.602Z,25.02
2022-08-12T07:06:06.141Z,25.10
2022-08-12T07:06:38.332Z,24.01
2022-08-12T07:07:10.995Z,23.99
2022-08-12T07:07:43.611Z,24.15
2022-08-12T07:08:17.023Z,24.35
2022-08-12T07:08:49.824Z,24.28
2022-08-12T07:10:00.159Z,24.28
2022-08-12T07:10:14.847Z,25.16
2022-08-12T07:10:53.619Z,24.73
2022-08-12T07:11:25.914Z,24.34
2022-08-12T07:11:58.034Z,24.10
2022-08-12T07:12:31.732Z,24.76
2022-08-12T07:13:03.998Z,24.25
2022-08-12T07:14:02.331Z,23.83
2022-08-12T07:14:40.679Z,24.22
2022-08-12T07:15:13.762Z,25.11
2022-08-12T07:15:46.595Z,25.44
2022-08-12T07:16:20.532Z,25.78
2022-08-12T07:16:52.691Z,25.94
2022-08-12T07:17:25.811Z,25.25
2022-08-12T07:18:20.162Z,25.09
2022-08-12T07:18:53.721Z,25.30
2022-08-12T07:19:26.766Z,25.33
2022-08-12T07:20:49.790Z,25.69
2022-08-12T07:21:10.908Z,25.52
2022-08-12T07:21:58.001Z,25.24
2022-08-12T07:22:34.746Z,25.26
2022-08-12T07:23:07.443Z,25.84
2022-08-12T07:23:41.708Z,26.16
2022-08-12T07:24:14.445Z,25.12
2022-08-12T07:25:06.568Z,24.96
2022-08-12T07:25:41.544Z,24.22
2022-08-12T07:26:19.777Z,24.03
2022-08-12T07:26:55.016Z,24.21
2022-08-12T07:27:27.394Z,24.94
2022-08-12T07:28:01.395Z,25.30
2022-08-12T07:28:42.717Z,25.00
2022-08-12T07:29:15.235Z,25.23
2022-08-12T07:29:58.373Z,25.10
2022-08-12T07:30:39.447Z,26.25
2022-08-12T07:31:12.522Z,26.49
2022-08-12T07:31:49.579Z,26.34
2022-08-12T07:32:25.613Z,26.49
2022-08-12T07:33:04.413Z,25.41
2022-08-12T07:33:38.598Z,25.51
2022-08-12T07:34:11.703Z,25.75
2022-08-12T07:34:43.941Z,25.81
2022-08-12T07:35:17.683Z,25.83
2022-08-12T07:35:54.535Z,26.34
2022-08-12T07:36:27.561Z,26.51
2022-08-12T07:37:01.291Z,26.36
2022-08-12T07:37:41.758Z,26.49
2022-08-12T07:38:29.884Z,26.16
2022-08-12T07:39:03.938Z,26.19
2022-08-12T07:39:36.195Z,26.27
2022-08-12T07:40:11.802Z,26.14
2022-08-12T07:40:44.091Z,25.95
2022-08-12T07:41:30.385Z,25.88
2022-08-12T07:42:02.609Z,26.21
2022-08-12T07:42:34.868Z,26.80
2022-08-12T07:43:07.144Z,27.21
2022-08-12T07:43:45.899Z,26.56
2022-08-12T07:44:18.411Z,26.79
2022-08-12T07:44:51.899Z,26.91
2022-08-12T07:45:24.608Z,27.14
2022-08-12T07:45:57.440Z,26.79
2022-08-12T07:46:37.413Z,27.02
2022-08-12T07:47:09.643Z,27.32
2022-08-12T07:47:45.244Z,26.39
2022-08-12T07:48:17.521Z,26.79
2022-08-12T07:48:55.795Z,27.17
2022-08-12T07:49:28.725Z,26.41
2022-08-12T07:50:03.463Z,26.35
2022-08-12T07:50:38.334Z,26.17
2022-08-12T07:51:10.905Z,26.15
2022-08-12T07:51:44.210Z,26.64
2022-08-12T07:52:17.153Z,26.25
2022-08-12T07:52:49.603Z,26.33
2022-08-12T07:53:22.453Z,27.04
2022-08-12T07:54:00.970Z,26.71
2022-08-12T07:54:35.120Z,26.53
2022-08-12T07:55:08.360Z,26.77
2022-08-12T07:55:41.141Z,26.44
2022-08-12T07:56:13.360Z,26.71
2022-08-12T07:56:45.551Z,26.67
2022-08-12T07:57:17.696Z,26.46
2022-08-12T07:57:53.434Z,26.94
2022-08-12T07:58:26.259Z,27.42
2022-08-12T07:59:00.984Z,27.71
2022-08-12T07:59:34.171Z,27.33
2022-08-12T08:00:06.949Z,27.25
2022-08-12T08:00:42.798Z,27.37
2022-08-12T08:01:18.755Z,27.35
2022-08-12T08:01:52.755Z,27.41
2022-08-12T08:02:26.757Z,27.98
2022-08-12T08:02:59.293Z,27.56
2022-08-12T08:03:31.713Z,27.83
2022-08-12T08:04:23.443Z,28.15
2022-08-12T08:04:58.121Z,27.85
2022-08-12T08:05:58.597Z,27.39
2022-08-12T08:06:31.952Z,26.02
2022-08-12T08:07:04.235Z,27.12
2022-08-12T08:07:36.493Z,27.59
2022-08-12T08:08:24.354Z,27.24
2022-08-12T08:08:56.775Z,27.98
2022-08-12T08:09:28.604Z,27.99
2022-08-12T08:10:02.287Z,27.99
2022-08-12T08:10:34.291Z,28.48
2022-08-12T08:11:25.382Z,27.92
2022-08-12T08:12:18.895Z,28.13
2022-08-12T08:12:54.851Z,28.02
2022-08-12T08:13:27.141Z,27.92
2022-08-12T08:14:01.613Z,27.39
2022-08-12T08:14:33.810Z,26.82
2022-08-12T08:15:06.202Z,26.86
2022-08-12T08:16:33.679Z,27.28
2022-08-12T08:17:06.650Z,27.97
2022-08-12T08:17:39.177Z,28.01
2022-08-12T08:18:26.951Z,27.50
2022-08-12T08:18:59.456Z,27.10
2022-08-12T08:19:48.611Z,27.25
2022-08-12T08:20:30.008Z,27.56
2022-08-12T08:21:02.113Z,28.15
2022-08-12T08:21:35.424Z,27.28
2022-08-12T08:22:07.921Z,28.16
2022-08-12T08:22:42.638Z,27.68
2022-08-12T08:23:18.072Z,28.52
2022-08-12T08:24:12.882Z,28.41
2022-08-12T08:24:57.674Z,28.24
2022-08-12T08:25:36.146Z,27.48
2022-08-12T08:26:10.483Z,28.18
2022-08-12T08:26:44.873Z,28.26
2022-08-12T08:27:18.310Z,28.62
2022-08-12T08:27:50.409Z,28.79
2022-08-12T08:28:22.566Z,26.91
2022-08-12T08:28:54.751Z,27.83
2022-08-12T08:29:29.388Z,28.57
2022-08-12T08:30:03.155Z,28.54
2022-08-12T08:30:38.414Z,27.77
2022-08-12T08:31:10.829Z,27.23
2022-08-12T08:31:45.672Z,27.17